Terminal Aerodrome Forecast
Issued by NWS

Home | Current Version | Previous Version | Text Only | Print | Product List | Glossary On
Versions: 1 2 3 4 5 6 7 8 9 10 11 12 13 14 15 16 17 18 19 20 21 22 23 24 25 26 27
848
FTUS44 KBMX 211420 AAB
TAFEET
TAF AMD
KEET 211420Z 2114/2212 16005KT 2SM RA BR BKN050 OVC070
     FM211700 15005KT 5SM -RA BR OVC070
     FM212100 19008KT P6SM OVC025=

USA.gov is the U.S. government's official web portal to all federal, state and local government web resources and services.